sensor_id;sensor_type;location;lat;lon;timestamp;P1;durP1;ratioP1;P2;durP2;ratioP2
72406;SDS011;60396;47.550;18.828;2023-02-24T00:01:58;23.35;;;6.50;;
72406;SDS011;60396;47.550;18.828;2023-02-24T00:04:29;15.38;;;6.20;;
72406;SDS011;60396;47.550;18.828;2023-02-24T00:06:58;14.50;;;6.10;;
72406;SDS011;60396;47.550;18.828;2023-02-24T00:09:26;14.20;;;6.30;;
72406;SDS011;60396;47.550;18.828;2023-02-24T00:11:57;16.27;;;6.57;;
72406;SDS011;60396;47.550;18.828;2023-02-24T00:14:26;15.85;;;6.53;;
72406;SDS011;60396;47.550;18.828;2023-02-24T00:16:56;19.90;;;6.95;;
72406;SDS011;60396;47.550;18.828;2023-02-24T00:19:25;14.95;;;5.87;;
72406;SDS011;60396;47.550;18.828;2023-02-24T00:21:55;19.65;;;6.95;;
72406;SDS011;60396;47.550;18.828;2023-02-24T00:24:23;14.20;;;6.00;;
72406;SDS011;60396;47.550;18.828;2023-02-24T00:26:57;19.37;;;6.78;;
72406;SDS011;60396;47.550;18.828;2023-02-24T00:29:28;16.62;;;6.87;;
72406;SDS011;60396;47.550;18.828;2023-02-24T00:31:58;16.83;;;7.72;;
72406;SDS011;60396;47.550;18.828;2023-02-24T00:34:27;18.00;;;7.40;;
72406;SDS011;60396;47.550;18.828;2023-02-24T00:36:56;18.57;;;7.47;;
72406;SDS011;60396;47.550;18.828;2023-02-24T00:39:25;18.50;;;7.78;;
72406;SDS011;60396;47.550;18.828;2023-02-24T00:41:57;17.58;;;7.10;;
72406;SDS011;60396;47.550;18.828;2023-02-24T00:44:35;17.02;;;7.32;;
72406;SDS011;60396;47.550;18.828;2023-02-24T00:47:07;17.77;;;7.25;;
72406;SDS011;60396;47.550;18.828;2023-02-24T00:49:37;19.13;;;7.73;;
72406;SDS011;60396;47.550;18.828;2023-02-24T00:52:10;18.45;;;7.80;;
72406;SDS011;60396;47.550;18.828;2023-02-24T00:54:42;18.27;;;7.60;;
72406;SDS011;60396;47.550;18.828;2023-02-24T00:57:12;18.25;;;7.60;;
72406;SDS011;60396;47.550;18.828;2023-02-24T00:59:42;17.55;;;7.82;;
72406;SDS011;60396;47.550;18.828;2023-02-24T01:02:14;17.53;;;7.23;;
72406;SDS011;60396;47.550;18.828;2023-02-24T01:04:43;16.92;;;8.00;;
72406;SDS011;60396;47.550;18.828;2023-02-24T01:07:12;18.60;;;7.75;;
72406;SDS011;60396;47.550;18.828;2023-02-24T01:09:42;24.12;;;8.13;;
72406;SDS011;60396;47.550;18.828;2023-02-24T01:12:10;21.17;;;7.57;;
72406;SDS011;60396;47.550;18.828;2023-02-24T01:15:05;16.13;;;6.87;;
72406;SDS011;60396;47.550;18.828;2023-02-24T01:17:35;24.80;;;7.82;;
72406;SDS011;60396;47.550;18.828;2023-02-24T01:20:04;18.00;;;7.45;;
72406;SDS011;60396;47.550;18.828;2023-02-24T01:22:44;18.65;;;8.07;;
72406;SDS011;60396;47.550;18.828;2023-02-24T01:25:14;20.73;;;7.43;;
72406;SDS011;60396;47.550;18.828;2023-02-24T01:27:43;15.17;;;7.07;;
72406;SDS011;60396;47.550;18.828;2023-02-24T01:30:11;19.00;;;7.62;;
72406;SDS011;60396;47.550;18.828;2023-02-24T01:32:42;21.25;;;7.90;;
72406;SDS011;60396;47.550;18.828;2023-02-24T01:35:11;21.92;;;7.87;;
72406;SDS011;60396;47.550;18.828;2023-02-24T01:37:38;16.15;;;7.37;;
72406;SDS011;60396;47.550;18.828;2023-02-24T01:40:08;17.50;;;6.90;;
72406;SDS011;60396;47.550;18.828;2023-02-24T01:42:44;19.35;;;7.65;;
72406;SDS011;60396;47.550;18.828;2023-02-24T01:45:15;20.42;;;7.62;;
72406;SDS011;60396;47.550;18.828;2023-02-24T01:47:49;19.98;;;7.97;;
72406;SDS011;60396;47.550;18.828;2023-02-24T01:50:18;15.85;;;7.25;;
72406;SDS011;60396;47.550;18.828;2023-02-24T01:52:48;16.07;;;7.47;;
72406;SDS011;60396;47.550;18.828;2023-02-24T01:55:23;19.73;;;8.20;;
72406;SDS011;60396;47.550;18.828;2023-02-24T01:57:56;16.62;;;7.45;;
72406;SDS011;60396;47.550;18.828;2023-02-24T02:00:25;16.35;;;7.28;;
72406;SDS011;60396;47.550;18.828;2023-02-24T02:03:08;17.02;;;7.50;;
72406;SDS011;60396;47.550;18.828;2023-02-24T02:05:39;21.70;;;7.67;;
72406;SDS011;60396;47.550;18.828;2023-02-24T02:08:07;17.30;;;8.07;;
72406;SDS011;60396;47.550;18.828;2023-02-24T02:10:37;17.60;;;7.53;;
72406;SDS011;60396;47.550;18.828;2023-02-24T02:13:06;17.52;;;8.23;;
72406;SDS011;60396;47.550;18.828;2023-02-24T02:15:35;18.65;;;8.63;;
72406;SDS011;60396;47.550;18.828;2023-02-24T02:24:03;17.85;;;8.02;;
72406;SDS011;60396;47.550;18.828;2023-02-24T02:30:03;19.15;;;8.10;;
72406;SDS011;60396;47.550;18.828;2023-02-24T02:35:56;20.23;;;8.52;;
72406;SDS011;60396;47.550;18.828;2023-02-24T02:38:40;22.42;;;8.98;;
72406;SDS011;60396;47.550;18.828;2023-02-24T02:44:37;21.85;;;9.43;;
72406;SDS011;60396;47.550;18.828;2023-02-24T02:52:58;19.85;;;9.55;;
72406;SDS011;60396;47.550;18.828;2023-02-24T02:55:39;19.58;;;9.30;;
72406;SDS011;60396;47.550;18.828;2023-02-24T02:58:12;23.75;;;9.18;;
72406;SDS011;60396;47.550;18.828;2023-02-24T03:00:48;19.73;;;9.87;;
72406;SDS011;60396;47.550;18.828;2023-02-24T03:03:30;23.98;;;9.07;;
72406;SDS011;60396;47.550;18.828;2023-02-24T03:06:11;18.87;;;8.40;;
72406;SDS011;60396;47.550;18.828;2023-02-24T03:08:43;21.50;;;8.70;;
72406;SDS011;60396;47.550;18.828;2023-02-24T03:11:23;18.42;;;8.25;;
72406;SDS011;60396;47.550;18.828;2023-02-24T03:13:52;21.17;;;9.30;;
72406;SDS011;60396;47.550;18.828;2023-02-24T03:16:22;19.20;;;8.35;;
72406;SDS011;60396;47.550;18.828;2023-02-24T03:18:52;22.35;;;8.57;;
72406;SDS011;60396;47.550;18.828;2023-02-24T03:24:00;19.33;;;8.18;;
72406;SDS011;60396;47.550;18.828;2023-02-24T03:26:30;19.07;;;8.13;;
72406;SDS011;60396;47.550;18.828;2023-02-24T03:29:08;20.65;;;8.63;;
72406;SDS011;60396;47.550;18.828;2023-02-24T03:31:59;18.17;;;8.23;;
72406;SDS011;60396;47.550;18.828;2023-02-24T03:34:31;19.42;;;8.60;;
72406;SDS011;60396;47.550;18.828;2023-02-24T03:37:22;21.90;;;9.30;;
72406;SDS011;60396;47.550;18.828;2023-02-24T03:39:55;20.80;;;8.93;;
72406;SDS011;60396;47.550;18.828;2023-02-24T03:42:29;20.02;;;9.27;;
72406;SDS011;60396;47.550;18.828;2023-02-24T03:45:00;18.70;;;8.93;;
72406;SDS011;60396;47.550;18.828;2023-02-24T03:47:29;21.45;;;8.77;;
72406;SDS011;60396;47.550;18.828;2023-02-24T03:49:58;19.65;;;8.63;;
72406;SDS011;60396;47.550;18.828;2023-02-24T03:52:33;19.53;;;8.97;;
72406;SDS011;60396;47.550;18.828;2023-02-24T03:55:12;19.85;;;9.02;;
72406;SDS011;60396;47.550;18.828;2023-02-24T03:57:46;18.70;;;8.30;;
72406;SDS011;60396;47.550;18.828;2023-02-24T04:03:20;20.12;;;8.52;;
72406;SDS011;60396;47.550;18.828;2023-02-24T04:08:44;20.70;;;8.80;;
72406;SDS011;60396;47.550;18.828;2023-02-24T04:11:19;18.27;;;8.52;;
72406;SDS011;60396;47.550;18.828;2023-02-24T04:13:54;20.92;;;8.90;;
72406;SDS011;60396;47.550;18.828;2023-02-24T04:16:29;16.98;;;8.32;;
72406;SDS011;60396;47.550;18.828;2023-02-24T04:19:03;19.80;;;9.03;;
72406;SDS011;60396;47.550;18.828;2023-02-24T04:21:34;26.85;;;9.52;;
72406;SDS011;60396;47.550;18.828;2023-02-24T04:24:04;20.60;;;9.48;;
72406;SDS011;60396;47.550;18.828;2023-02-24T04:26:37;20.20;;;9.32;;
72406;SDS011;60396;47.550;18.828;2023-02-24T04:29:10;17.30;;;8.80;;
72406;SDS011;60396;47.550;18.828;2023-02-24T04:31:45;20.60;;;8.63;;
72406;SDS011;60396;47.550;18.828;2023-02-24T04:34:15;24.95;;;9.82;;
72406;SDS011;60396;47.550;18.828;2023-02-24T04:36:46;21.73;;;8.70;;
72406;SDS011;60396;47.550;18.828;2023-02-24T04:39:17;23.58;;;8.75;;
72406;SDS011;60396;47.550;18.828;2023-02-24T04:41:46;19.33;;;8.45;;
72406;SDS011;60396;47.550;18.828;2023-02-24T04:44:16;18.57;;;8.70;;
72406;SDS011;60396;47.550;18.828;2023-02-24T04:46:45;20.60;;;8.60;;
72406;SDS011;60396;47.550;18.828;2023-02-24T04:49:14;18.92;;;8.43;;
72406;SDS011;60396;47.550;18.828;2023-02-24T04:51:42;19.65;;;9.05;;
72406;SDS011;60396;47.550;18.828;2023-02-24T04:54:12;20.48;;;8.93;;
72406;SDS011;60396;47.550;18.828;2023-02-24T04:56:44;19.80;;;9.47;;
72406;SDS011;60396;47.550;18.828;2023-02-24T04:59:14;24.80;;;9.68;;
72406;SDS011;60396;47.550;18.828;2023-02-24T05:01:42;20.67;;;9.30;;
72406;SDS011;60396;47.550;18.828;2023-02-24T05:04:11;26.37;;;9.80;;
72406;SDS011;60396;47.550;18.828;2023-02-24T05:06:40;20.05;;;9.32;;
72406;SDS011;60396;47.550;18.828;2023-02-24T05:09:11;22.47;;;9.17;;
72406;SDS011;60396;47.550;18.828;2023-02-24T05:11:40;22.52;;;10.25;;
72406;SDS011;60396;47.550;18.828;2023-02-24T05:14:12;22.20;;;9.45;;
72406;SDS011;60396;47.550;18.828;2023-02-24T05:16:43;19.95;;;9.55;;
72406;SDS011;60396;47.550;18.828;2023-02-24T05:19:13;21.45;;;9.75;;
72406;SDS011;60396;47.550;18.828;2023-02-24T05:22:01;27.73;;;9.77;;
72406;SDS011;60396;47.550;18.828;2023-02-24T05:24:30;21.35;;;9.27;;
72406;SDS011;60396;47.550;18.828;2023-02-24T05:26:57;24.45;;;10.60;;
72406;SDS011;60396;47.550;18.828;2023-02-24T05:29:26;23.00;;;10.35;;
72406;SDS011;60396;47.550;18.828;2023-02-24T05:31:57;20.73;;;10.32;;
72406;SDS011;60396;47.550;18.828;2023-02-24T05:34:27;22.50;;;9.73;;
72406;SDS011;60396;47.550;18.828;2023-02-24T05:36:57;20.98;;;10.38;;
72406;SDS011;60396;47.550;18.828;2023-02-24T05:39:25;27.73;;;10.30;;
72406;SDS011;60396;47.550;18.828;2023-02-24T05:41:55;21.40;;;9.85;;
72406;SDS011;60396;47.550;18.828;2023-02-24T05:44:24;22.73;;;10.27;;
72406;SDS011;60396;47.550;18.828;2023-02-24T05:46:53;19.40;;;9.50;;
72406;SDS011;60396;47.550;18.828;2023-02-24T05:49:26;21.90;;;9.93;;
72406;SDS011;60396;47.550;18.828;2023-02-24T05:51:58;22.85;;;10.05;;
72406;SDS011;60396;47.550;18.828;2023-02-24T05:54:28;23.20;;;9.80;;
72406;SDS011;60396;47.550;18.828;2023-02-24T05:57:04;20.12;;;9.95;;
72406;SDS011;60396;47.550;18.828;2023-02-24T05:59:42;24.43;;;10.50;;
72406;SDS011;60396;47.550;18.828;2023-02-24T06:02:12;19.48;;;9.75;;
72406;SDS011;60396;47.550;18.828;2023-02-24T06:04:42;19.73;;;9.88;;
72406;SDS011;60396;47.550;18.828;2023-02-24T06:07:21;20.45;;;9.48;;
72406;SDS011;60396;47.550;18.828;2023-02-24T06:09:52;19.70;;;10.10;;
72406;SDS011;60396;47.550;18.828;2023-02-24T06:12:25;21.77;;;10.17;;
72406;SDS011;60396;47.550;18.828;2023-02-24T06:15:00;21.20;;;9.65;;
72406;SDS011;60396;47.550;18.828;2023-02-24T06:17:33;20.20;;;10.43;;
72406;SDS011;60396;47.550;18.828;2023-02-24T06:20:01;23.00;;;10.35;;
72406;SDS011;60396;47.550;18.828;2023-02-24T06:22:40;22.50;;;10.00;;
72406;SDS011;60396;47.550;18.828;2023-02-24T06:25:11;22.67;;;9.27;;
72406;SDS011;60396;47.550;18.828;2023-02-24T06:27:38;24.90;;;10.00;;
72406;SDS011;60396;47.550;18.828;2023-02-24T06:30:06;21.67;;;9.75;;
72406;SDS011;60396;47.550;18.828;2023-02-24T06:32:36;19.45;;;9.65;;
72406;SDS011;60396;47.550;18.828;2023-02-24T06:35:04;18.95;;;9.73;;
72406;SDS011;60396;47.550;18.828;2023-02-24T06:37:32;26.37;;;10.23;;
72406;SDS011;60396;47.550;18.828;2023-02-24T06:40:02;20.70;;;9.90;;
72406;SDS011;60396;47.550;18.828;2023-02-24T06:42:43;19.85;;;10.45;;
72406;SDS011;60396;47.550;18.828;2023-02-24T06:45:15;20.58;;;9.98;;
72406;SDS011;60396;47.550;18.828;2023-02-24T06:47:43;21.12;;;10.45;;
72406;SDS011;60396;47.550;18.828;2023-02-24T06:50:13;20.70;;;10.47;;
72406;SDS011;60396;47.550;18.828;2023-02-24T06:52:49;24.58;;;10.30;;
72406;SDS011;60396;47.550;18.828;2023-02-24T06:55:16;22.20;;;10.30;;
72406;SDS011;60396;47.550;18.828;2023-02-24T06:57:58;24.30;;;10.95;;
72406;SDS011;60396;47.550;18.828;2023-02-24T07:00:31;21.15;;;9.80;;
72406;SDS011;60396;47.550;18.828;2023-02-24T07:03:14;20.13;;;10.53;;
72406;SDS011;60396;47.550;18.828;2023-02-24T07:05:47;23.40;;;10.52;;
72406;SDS011;60396;47.550;18.828;2023-02-24T07:08:21;23.23;;;10.70;;
72406;SDS011;60396;47.550;18.828;2023-02-24T07:10:53;24.83;;;11.77;;
72406;SDS011;60396;47.550;18.828;2023-02-24T07:13:23;23.60;;;10.50;;
72406;SDS011;60396;47.550;18.828;2023-02-24T07:15:51;23.90;;;12.03;;
72406;SDS011;60396;47.550;18.828;2023-02-24T07:18:19;25.83;;;10.30;;
72406;SDS011;60396;47.550;18.828;2023-02-24T07:20:47;23.85;;;11.32;;
72406;SDS011;60396;47.550;18.828;2023-02-24T07:23:15;22.13;;;10.57;;
72406;SDS011;60396;47.550;18.828;2023-02-24T07:25:43;21.58;;;10.43;;
72406;SDS011;60396;47.550;18.828;2023-02-24T07:28:12;28.07;;;11.00;;
72406;SDS011;60396;47.550;18.828;2023-02-24T07:30:40;19.80;;;9.98;;
72406;SDS011;60396;47.550;18.828;2023-02-24T07:33:08;23.48;;;11.27;;
72406;SDS011;60396;47.550;18.828;2023-02-24T07:35:36;23.98;;;11.27;;
72406;SDS011;60396;47.550;18.828;2023-02-24T07:38:07;22.98;;;10.73;;
72406;SDS011;60396;47.550;18.828;2023-02-24T07:40:35;21.77;;;11.07;;
72406;SDS011;60396;47.550;18.828;2023-02-24T07:43:03;22.60;;;11.45;;
72406;SDS011;60396;47.550;18.828;2023-02-24T07:45:32;23.75;;;10.85;;
72406;SDS011;60396;47.550;18.828;2023-02-24T07:48:00;31.42;;;11.05;;
72406;SDS011;60396;47.550;18.828;2023-02-24T07:50:28;22.62;;;11.15;;
72406;SDS011;60396;47.550;18.828;2023-02-24T07:52:58;19.67;;;11.33;;
72406;SDS011;60396;47.550;18.828;2023-02-24T07:55:33;25.02;;;11.48;;
72406;SDS011;60396;47.550;18.828;2023-02-24T07:58:02;20.75;;;10.98;;
72406;SDS011;60396;47.550;18.828;2023-02-24T08:00:32;24.30;;;11.12;;
72406;SDS011;60396;47.550;18.828;2023-02-24T08:03:16;23.25;;;12.00;;
72406;SDS011;60396;47.550;18.828;2023-02-24T08:05:44;24.53;;;11.63;;
72406;SDS011;60396;47.550;18.828;2023-02-24T08:08:11;26.40;;;11.27;;
72406;SDS011;60396;47.550;18.828;2023-02-24T08:10:39;25.88;;;11.00;;
72406;SDS011;60396;47.550;18.828;2023-02-24T08:13:07;22.85;;;11.45;;
72406;SDS011;60396;47.550;18.828;2023-02-24T08:15:38;24.33;;;11.18;;
72406;SDS011;60396;47.550;18.828;2023-02-24T08:18:06;23.53;;;11.93;;
72406;SDS011;60396;47.550;18.828;2023-02-24T08:20:33;22.90;;;11.70;;
72406;SDS011;60396;47.550;18.828;2023-02-24T08:23:20;26.60;;;12.15;;
72406;SDS011;60396;47.550;18.828;2023-02-24T08:25:49;21.77;;;11.52;;
72406;SDS011;60396;47.550;18.828;2023-02-24T08:28:17;26.70;;;13.55;;
72406;SDS011;60396;47.550;18.828;2023-02-24T08:30:45;23.20;;;11.57;;
72406;SDS011;60396;47.550;18.828;2023-02-24T08:33:17;25.60;;;12.27;;
72406;SDS011;60396;47.550;18.828;2023-02-24T08:35:53;27.70;;;12.57;;
72406;SDS011;60396;47.550;18.828;2023-02-24T08:38:29;24.58;;;12.02;;
72406;SDS011;60396;47.550;18.828;2023-02-24T08:41:13;25.98;;;12.32;;
72406;SDS011;60396;47.550;18.828;2023-02-24T08:43:45;24.83;;;12.10;;
72406;SDS011;60396;47.550;18.828;2023-02-24T08:46:19;26.17;;;12.27;;
72406;SDS011;60396;47.550;18.828;2023-02-24T08:48:54;22.95;;;12.10;;
72406;SDS011;60396;47.550;18.828;2023-02-24T08:54:15;26.15;;;11.90;;
72406;SDS011;60396;47.550;18.828;2023-02-24T08:56:45;26.30;;;12.70;;
72406;SDS011;60396;47.550;18.828;2023-02-24T08:59:23;27.27;;;12.37;;
72406;SDS011;60396;47.550;18.828;2023-02-24T09:05:06;28.80;;;13.55;;
72406;SDS011;60396;47.550;18.828;2023-02-24T09:07:40;25.62;;;13.52;;
72406;SDS011;60396;47.550;18.828;2023-02-24T09:10:13;24.40;;;12.83;;
72406;SDS011;60396;47.550;18.828;2023-02-24T09:12:44;25.23;;;13.57;;
72406;SDS011;60396;47.550;18.828;2023-02-24T09:15:12;24.17;;;13.18;;
72406;SDS011;60396;47.550;18.828;2023-02-24T09:17:43;25.90;;;12.85;;
72406;SDS011;60396;47.550;18.828;2023-02-24T09:22:59;25.47;;;12.57;;
72406;SDS011;60396;47.550;18.828;2023-02-24T09:25:30;25.60;;;13.93;;
72406;SDS011;60396;47.550;18.828;2023-02-24T09:28:14;25.00;;;13.20;;
72406;SDS011;60396;47.550;18.828;2023-02-24T09:35:52;25.07;;;13.00;;
72406;SDS011;60396;47.550;18.828;2023-02-24T09:38:20;27.87;;;13.73;;
72406;SDS011;60396;47.550;18.828;2023-02-24T09:41:20;28.67;;;13.85;;
72406;SDS011;60396;47.550;18.828;2023-02-24T09:47:10;27.83;;;13.88;;
72406;SDS011;60396;47.550;18.828;2023-02-24T09:49:54;26.77;;;13.30;;
72406;SDS011;60396;47.550;18.828;2023-02-24T09:52:26;30.83;;;14.52;;
72406;SDS011;60396;47.550;18.828;2023-02-24T10:03:28;28.73;;;14.03;;
72406;SDS011;60396;47.550;18.828;2023-02-24T10:06:30;26.92;;;13.98;;
72406;SDS011;60396;47.550;18.828;2023-02-24T10:09:16;29.15;;;13.88;;
72406;SDS011;60396;47.550;18.828;2023-02-24T10:11:51;28.02;;;14.57;;
72406;SDS011;60396;47.550;18.828;2023-02-24T10:17:23;30.53;;;14.97;;
72406;SDS011;60396;47.550;18.828;2023-02-24T10:20:03;27.95;;;14.60;;
72406;SDS011;60396;47.550;18.828;2023-02-24T10:22:46;28.23;;;14.13;;
72406;SDS011;60396;47.550;18.828;2023-02-24T10:28:05;27.00;;;13.82;;
72406;SDS011;60396;47.550;18.828;2023-02-24T10:33:37;26.15;;;14.15;;
72406;SDS011;60396;47.550;18.828;2023-02-24T10:36:12;25.98;;;13.55;;
72406;SDS011;60396;47.550;18.828;2023-02-24T10:38:43;26.50;;;14.93;;
72406;SDS011;60396;47.550;18.828;2023-02-24T10:41:13;31.75;;;14.93;;
72406;SDS011;60396;47.550;18.828;2023-02-24T10:43:51;25.97;;;13.97;;
72406;SDS011;60396;47.550;18.828;2023-02-24T10:46:29;27.10;;;14.85;;
72406;SDS011;60396;47.550;18.828;2023-02-24T10:49:08;28.85;;;13.90;;
72406;SDS011;60396;47.550;18.828;2023-02-24T10:51:46;30.80;;;14.65;;
72406;SDS011;60396;47.550;18.828;2023-02-24T10:57:09;31.13;;;14.33;;
72406;SDS011;60396;47.550;18.828;2023-02-24T11:00:13;27.08;;;14.40;;
72406;SDS011;60396;47.550;18.828;2023-02-24T11:02:48;26.35;;;14.50;;
72406;SDS011;60396;47.550;18.828;2023-02-24T11:05:37;29.25;;;15.13;;
72406;SDS011;60396;47.550;18.828;2023-02-24T11:08:28;27.77;;;14.82;;
72406;SDS011;60396;47.550;18.828;2023-02-24T11:11:06;29.00;;;15.33;;
72406;SDS011;60396;47.550;18.828;2023-02-24T11:13:52;29.27;;;15.57;;
72406;SDS011;60396;47.550;18.828;2023-02-24T11:20:20;29.17;;;15.80;;
72406;SDS011;60396;47.550;18.828;2023-02-24T11:22:43;32.13;;;15.60;;
72406;SDS011;60396;47.550;18.828;2023-02-24T11:28:02;29.45;;;16.37;;
72406;SDS011;60396;47.550;18.828;2023-02-24T11:30:45;30.67;;;16.48;;
72406;SDS011;60396;47.550;18.828;2023-02-24T11:35:58;29.85;;;16.37;;
72406;SDS011;60396;47.550;18.828;2023-02-24T11:41:12;29.23;;;15.88;;
72406;SDS011;60396;47.550;18.828;2023-02-24T11:43:42;32.17;;;15.85;;
72406;SDS011;60396;47.550;18.828;2023-02-24T11:46:20;35.17;;;16.48;;
72406;SDS011;60396;47.550;18.828;2023-02-24T11:48:50;30.45;;;16.83;;
72406;SDS011;60396;47.550;18.828;2023-02-24T11:51:25;28.53;;;15.90;;
72406;SDS011;60396;47.550;18.828;2023-02-24T11:53:59;32.55;;;17.12;;
72406;SDS011;60396;47.550;18.828;2023-02-24T11:56:30;31.70;;;16.37;;
72406;SDS011;60396;47.550;18.828;2023-02-24T11:59:04;32.22;;;17.20;;
72406;SDS011;60396;47.550;18.828;2023-02-24T12:01:54;32.20;;;17.00;;
72406;SDS011;60396;47.550;18.828;2023-02-24T12:04:31;31.27;;;16.87;;
72406;SDS011;60396;47.550;18.828;2023-02-24T12:09:35;34.60;;;18.23;;
72406;SDS011;60396;47.550;18.828;2023-02-24T12:12:10;32.15;;;17.87;;
72406;SDS011;60396;47.550;18.828;2023-02-24T12:14:49;29.50;;;17.08;;
72406;SDS011;60396;47.550;18.828;2023-02-24T12:20:14;35.45;;;17.87;;
72406;SDS011;60396;47.550;18.828;2023-02-24T12:22:49;31.20;;;17.33;;
72406;SDS011;60396;47.550;18.828;2023-02-24T12:25:43;32.35;;;16.40;;
72406;SDS011;60396;47.550;18.828;2023-02-24T12:28:28;30.05;;;16.05;;
72406;SDS011;60396;47.550;18.828;2023-02-24T12:34:01;30.73;;;15.95;;
72406;SDS011;60396;47.550;18.828;2023-02-24T12:39:34;32.28;;;17.42;;
72406;SDS011;60396;47.550;18.828;2023-02-24T12:45:00;33.30;;;18.60;;
72406;SDS011;60396;47.550;18.828;2023-02-24T12:50:12;33.33;;;18.50;;
72406;SDS011;60396;47.550;18.828;2023-02-24T12:55:31;35.30;;;18.98;;
72406;SDS011;60396;47.550;18.828;2023-02-24T12:58:21;39.10;;;18.60;;
72406;SDS011;60396;47.550;18.828;2023-02-24T13:03:52;33.55;;;17.75;;
72406;SDS011;60396;47.550;18.828;2023-02-24T13:06:40;34.95;;;18.33;;
72406;SDS011;60396;47.550;18.828;2023-02-24T13:09:23;35.13;;;18.70;;
72406;SDS011;60396;47.550;18.828;2023-02-24T13:12:17;37.63;;;18.17;;
72406;SDS011;60396;47.550;18.828;2023-02-24T13:14:47;33.00;;;17.30;;
72406;SDS011;60396;47.550;18.828;2023-02-24T13:17:20;33.05;;;17.23;;
72406;SDS011;60396;47.550;18.828;2023-02-24T13:19:50;32.47;;;16.83;;
72406;SDS011;60396;47.550;18.828;2023-02-24T13:22:19;35.88;;;17.73;;
72406;SDS011;60396;47.550;18.828;2023-02-24T13:27:24;37.65;;;16.83;;
72406;SDS011;60396;47.550;18.828;2023-02-24T13:34:56;30.67;;;15.82;;
72406;SDS011;60396;47.550;18.828;2023-02-24T13:37:29;30.63;;;14.67;;
72406;SDS011;60396;47.550;18.828;2023-02-24T13:40:00;29.60;;;14.02;;
72406;SDS011;60396;47.550;18.828;2023-02-24T13:45:33;34.17;;;14.82;;
72406;SDS011;60396;47.550;18.828;2023-02-24T13:56:40;30.52;;;14.52;;
72406;SDS011;60396;47.550;18.828;2023-02-24T14:04:43;26.17;;;12.90;;
72406;SDS011;60396;47.550;18.828;2023-02-24T14:07:17;25.05;;;13.15;;
72406;SDS011;60396;47.550;18.828;2023-02-24T14:09:50;27.95;;;13.68;;
72406;SDS011;60396;47.550;18.828;2023-02-24T14:12:26;27.23;;;12.23;;
72406;SDS011;60396;47.550;18.828;2023-02-24T14:14:55;27.98;;;12.48;;
72406;SDS011;60396;47.550;18.828;2023-02-24T14:22:44;25.80;;;13.13;;
72406;SDS011;60396;47.550;18.828;2023-02-24T14:25:15;29.37;;;13.93;;
72406;SDS011;60396;47.550;18.828;2023-02-24T14:27:44;26.00;;;12.85;;
72406;SDS011;60396;47.550;18.828;2023-02-24T14:30:24;28.47;;;13.20;;
72406;SDS011;60396;47.550;18.828;2023-02-24T14:32:53;32.75;;;14.00;;
72406;SDS011;60396;47.550;18.828;2023-02-24T14:35:26;31.05;;;12.82;;
72406;SDS011;60396;47.550;18.828;2023-02-24T14:37:55;27.27;;;13.00;;
72406;SDS011;60396;47.550;18.828;2023-02-24T14:40:23;29.30;;;14.32;;
72406;SDS011;60396;47.550;18.828;2023-02-24T14:42:52;24.90;;;13.10;;
72406;SDS011;60396;47.550;18.828;2023-02-24T14:45:23;28.42;;;14.05;;
72406;SDS011;60396;47.550;18.828;2023-02-24T14:47:53;28.40;;;13.45;;
72406;SDS011;60396;47.550;18.828;2023-02-24T14:50:27;26.40;;;13.52;;
72406;SDS011;60396;47.550;18.828;2023-02-24T14:53:01;27.45;;;12.95;;
72406;SDS011;60396;47.550;18.828;2023-02-24T14:55:34;33.37;;;14.03;;
72406;SDS011;60396;47.550;18.828;2023-02-24T14:58:13;31.77;;;15.45;;
72406;SDS011;60396;47.550;18.828;2023-02-24T15:00:48;30.92;;;14.63;;
72406;SDS011;60396;47.550;18.828;2023-02-24T15:03:26;36.03;;;16.62;;
72406;SDS011;60396;47.550;18.828;2023-02-24T15:06:04;38.25;;;17.50;;
72406;SDS011;60396;47.550;18.828;2023-02-24T15:08:34;33.90;;;16.77;;
72406;SDS011;60396;47.550;18.828;2023-02-24T15:13:51;41.65;;;18.77;;
72406;SDS011;60396;47.550;18.828;2023-02-24T15:16:36;47.30;;;21.55;;
72406;SDS011;60396;47.550;18.828;2023-02-24T15:19:20;43.30;;;19.58;;
72406;SDS011;60396;47.550;18.828;2023-02-24T15:21:53;41.23;;;17.47;;
72406;SDS011;60396;47.550;18.828;2023-02-24T15:24:25;37.08;;;17.55;;
72406;SDS011;60396;47.550;18.828;2023-02-24T15:26:59;36.55;;;15.57;;
72406;SDS011;60396;47.550;18.828;2023-02-24T15:29:28;31.83;;;15.05;;
72406;SDS011;60396;47.550;18.828;2023-02-24T15:31:58;42.15;;;17.50;;
72406;SDS011;60396;47.550;18.828;2023-02-24T15:34:31;43.73;;;17.20;;
72406;SDS011;60396;47.550;18.828;2023-02-24T15:37:02;44.38;;;17.62;;
72406;SDS011;60396;47.550;18.828;2023-02-24T15:39:43;47.62;;;18.27;;
72406;SDS011;60396;47.550;18.828;2023-02-24T15:42:22;34.10;;;15.70;;
72406;SDS011;60396;47.550;18.828;2023-02-24T15:44:55;43.10;;;17.65;;
72406;SDS011;60396;47.550;18.828;2023-02-24T15:47:28;43.40;;;18.23;;
72406;SDS011;60396;47.550;18.828;2023-02-24T15:49:59;40.33;;;16.48;;
72406;SDS011;60396;47.550;18.828;2023-02-24T15:52:27;53.97;;;19.58;;
72406;SDS011;60396;47.550;18.828;2023-02-24T15:54:55;52.05;;;20.92;;
72406;SDS011;60396;47.550;18.828;2023-02-24T15:57:25;52.15;;;21.70;;
72406;SDS011;60396;47.550;18.828;2023-02-24T15:59:56;50.00;;;19.33;;
72406;SDS011;60396;47.550;18.828;2023-02-24T16:02:24;43.78;;;18.87;;
72406;SDS011;60396;47.550;18.828;2023-02-24T16:04:52;43.75;;;18.77;;
72406;SDS011;60396;47.550;18.828;2023-02-24T16:07:29;33.30;;;16.52;;
72406;SDS011;60396;47.550;18.828;2023-02-24T16:10:00;40.15;;;18.42;;
72406;SDS011;60396;47.550;18.828;2023-02-24T16:12:29;30.30;;;13.50;;
72406;SDS011;60396;47.550;18.828;2023-02-24T16:15:00;29.10;;;13.13;;
72406;SDS011;60396;47.550;18.828;2023-02-24T16:17:32;31.95;;;14.18;;
72406;SDS011;60396;47.550;18.828;2023-02-24T16:20:06;27.77;;;12.68;;
72406;SDS011;60396;47.550;18.828;2023-02-24T16:22:38;30.88;;;13.80;;
72406;SDS011;60396;47.550;18.828;2023-02-24T16:25:06;27.87;;;13.10;;
72406;SDS011;60396;47.550;18.828;2023-02-24T16:27:34;29.17;;;13.95;;
72406;SDS011;60396;47.550;18.828;2023-02-24T16:30:02;33.65;;;13.48;;
72406;SDS011;60396;47.550;18.828;2023-02-24T16:32:31;27.45;;;13.30;;
72406;SDS011;60396;47.550;18.828;2023-02-24T16:34:58;31.83;;;13.30;;
72406;SDS011;60396;47.550;18.828;2023-02-24T16:37:27;29.70;;;12.97;;
72406;SDS011;60396;47.550;18.828;2023-02-24T16:39:55;32.35;;;13.80;;
72406;SDS011;60396;47.550;18.828;2023-02-24T16:42:25;28.27;;;12.95;;
72406;SDS011;60396;47.550;18.828;2023-02-24T16:44:53;32.80;;;12.98;;
72406;SDS011;60396;47.550;18.828;2023-02-24T16:47:22;30.17;;;13.68;;
72406;SDS011;60396;47.550;18.828;2023-02-24T16:49:50;31.10;;;12.70;;
72406;SDS011;60396;47.550;18.828;2023-02-24T16:52:29;29.27;;;12.75;;
72406;SDS011;60396;47.550;18.828;2023-02-24T16:54:57;29.77;;;13.75;;
72406;SDS011;60396;47.550;18.828;2023-02-24T16:57:25;27.55;;;12.68;;
72406;SDS011;60396;47.550;18.828;2023-02-24T16:59:53;27.83;;;12.73;;
72406;SDS011;60396;47.550;18.828;2023-02-24T17:02:21;28.03;;;12.67;;